sensor_id;sensor_type;location;lat;lon;timestamp;pressure;altitude;pressure_sealevel;temperature;humidity
73692;BME280;61996;49.910;35.562;2023-11-18T00:00:23;99495.28;;;19.02;50.34
73692;BME280;61996;49.910;35.562;2023-11-18T00:03:28;99494.59;;;19.00;50.27
73692;BME280;61996;49.910;35.562;2023-11-18T00:06:31;99508.03;;;18.98;50.38
73692;BME280;61996;49.910;35.562;2023-11-18T00:09:34;99497.38;;;18.98;50.25
73692;BME280;61996;49.910;35.562;2023-11-18T00:12:37;99497.53;;;18.97;50.33
73692;BME280;61996;49.910;35.562;2023-11-18T00:15:42;99496.97;;;18.93;50.28
73692;BME280;61996;49.910;35.562;2023-11-18T00:18:49;99503.56;;;18.89;50.52
73692;BME280;61996;49.910;35.562;2023-11-18T00:21:51;99508.75;;;18.90;50.53
73692;BME280;61996;49.910;35.562;2023-11-18T00:24:55;99499.22;;;18.88;50.45
73692;BME280;61996;49.910;35.562;2023-11-18T00:27:58;99493.22;;;18.86;50.47
73692;BME280;61996;49.910;35.562;2023-11-18T00:31:00;99492.06;;;18.88;50.44
73692;BME280;61996;49.910;35.562;2023-11-18T00:34:07;99490.66;;;18.84;50.37
73692;BME280;61996;49.910;35.562;2023-11-18T00:37:11;99490.81;;;18.83;50.51
73692;BME280;61996;49.910;35.562;2023-11-18T00:40:13;99492.63;;;18.82;50.35
73692;BME280;61996;49.910;35.562;2023-11-18T00:43:19;99494.47;;;18.82;50.59
73692;BME280;61996;49.910;35.562;2023-11-18T00:46:24;99492.09;;;18.79;50.48
73692;BME280;61996;49.910;35.562;2023-11-18T00:49:28;99499.25;;;18.78;50.48
73692;BME280;61996;49.910;35.562;2023-11-18T00:52:31;99497.13;;;18.82;50.43
73692;BME280;61996;49.910;35.562;2023-11-18T00:55:34;99500.91;;;18.89;50.37
73692;BME280;61996;49.910;35.562;2023-11-18T00:58:38;99494.88;;;18.87;50.20
73692;BME280;61996;49.910;35.562;2023-11-18T01:01:42;99491.78;;;18.82;50.32
73692;BME280;61996;49.910;35.562;2023-11-18T01:04:46;99484.09;;;18.79;50.30
73692;BME280;61996;49.910;35.562;2023-11-18T01:07:49;99492.09;;;18.79;50.27
73692;BME280;61996;49.910;35.562;2023-11-18T01:10:52;99488.84;;;18.75;50.38
73692;BME280;61996;49.910;35.562;2023-11-18T01:13:55;99494.34;;;18.74;50.49
73692;BME280;61996;49.910;35.562;2023-11-18T01:16:58;99486.47;;;18.82;50.30
73692;BME280;61996;49.910;35.562;2023-11-18T01:20:03;99489.31;;;18.71;50.47
73692;BME280;61996;49.910;35.562;2023-11-18T01:23:11;99484.25;;;18.68;50.70
73692;BME280;61996;49.910;35.562;2023-11-18T01:26:14;99487.31;;;18.73;50.51
73692;BME280;61996;49.910;35.562;2023-11-18T01:29:17;99478.66;;;18.71;50.59
73692;BME280;61996;49.910;35.562;2023-11-18T01:32:20;99484.09;;;18.69;50.58
73692;BME280;61996;49.910;35.562;2023-11-18T01:35:25;99481.44;;;18.69;50.55
73692;BME280;61996;49.910;35.562;2023-11-18T01:38:28;99480.13;;;18.63;50.66
73692;BME280;61996;49.910;35.562;2023-11-18T01:41:32;99482.78;;;18.63;50.64
73692;BME280;61996;49.910;35.562;2023-11-18T01:44:36;99488.13;;;18.63;50.62
73692;BME280;61996;49.910;35.562;2023-11-18T01:47:40;99490.78;;;18.63;50.57
73692;BME280;61996;49.910;35.562;2023-11-18T01:50:44;99492.50;;;18.65;50.52
73692;BME280;61996;49.910;35.562;2023-11-18T01:53:49;99493.44;;;18.63;50.61
73692;BME280;61996;49.910;35.562;2023-11-18T01:56:52;99501.59;;;18.62;50.62
73692;BME280;61996;49.910;35.562;2023-11-18T01:59:56;99496.09;;;18.63;50.40
73692;BME280;61996;49.910;35.562;2023-11-18T02:03:00;99493.44;;;18.63;50.62
73692;BME280;61996;49.910;35.562;2023-11-18T02:06:05;99502.72;;;18.59;50.60
73692;BME280;61996;49.910;35.562;2023-11-18T02:09:10;99500.75;;;18.61;50.52
73692;BME280;61996;49.910;35.562;2023-11-18T02:12:16;99502.88;;;18.58;50.58
73692;BME280;61996;49.910;35.562;2023-11-18T02:15:22;99505.53;;;18.58;50.42
73692;BME280;61996;49.910;35.562;2023-11-18T02:18:29;99495.28;;;18.53;50.65
73692;BME280;61996;49.910;35.562;2023-11-18T02:21:33;99490.09;;;18.52;50.64
73692;BME280;61996;49.910;35.562;2023-11-18T02:24:37;99489.13;;;18.53;50.55
73692;BME280;61996;49.910;35.562;2023-11-18T02:27:43;99486.75;;;18.50;50.73
73692;BME280;61996;49.910;35.562;2023-11-18T02:30:46;99489.81;;;18.45;50.75
73692;BME280;61996;49.910;35.562;2023-11-18T02:33:52;99486.19;;;18.46;50.75
73692;BME280;61996;49.910;35.562;2023-11-18T02:36:57;99487.84;;;18.47;50.67
73692;BME280;61996;49.910;35.562;2023-11-18T02:40:03;99495.28;;;18.44;50.69
73692;BME280;61996;49.910;35.562;2023-11-18T02:43:11;99491.78;;;18.43;50.63
73692;BME280;61996;49.910;35.562;2023-11-18T02:46:14;99501.47;;;18.44;50.62
73692;BME280;61996;49.910;35.562;2023-11-18T02:49:19;99482.94;;;18.43;50.67
73692;BME280;61996;49.910;35.562;2023-11-18T02:52:22;99481.16;;;18.43;50.69
73692;BME280;61996;49.910;35.562;2023-11-18T02:55:25;99482.94;;;18.43;50.72
73692;BME280;61996;49.910;35.562;2023-11-18T02:58:30;99487.72;;;18.39;50.48
73692;BME280;61996;49.910;35.562;2023-11-18T03:01:32;99482.25;;;18.41;50.68
73692;BME280;61996;49.910;35.562;2023-11-18T03:04:36;99487.56;;;18.41;50.60
73692;BME280;61996;49.910;35.562;2023-11-18T03:07:39;99486.88;;;18.39;50.67
73692;BME280;61996;49.910;35.562;2023-11-18T03:10:43;99483.91;;;18.42;50.56
73692;BME280;61996;49.910;35.562;2023-11-18T03:13:48;99487.72;;;18.39;50.66
73692;BME280;61996;49.910;35.562;2023-11-18T03:16:51;99489.41;;;18.50;50.45
73692;BME280;61996;49.910;35.562;2023-11-18T03:19:57;99502.44;;;18.43;50.50
73692;BME280;61996;49.910;35.562;2023-11-18T03:23:01;99493.75;;;18.51;50.45
73692;BME280;61996;49.910;35.562;2023-11-18T03:26:04;99492.59;;;18.63;49.82
73692;BME280;61996;49.910;35.562;2023-11-18T03:29:09;99495.16;;;18.74;49.70
73692;BME280;61996;49.910;35.562;2023-11-18T03:32:14;99498.81;;;18.83;49.54
73692;BME280;61996;49.910;35.562;2023-11-18T03:35:17;99499.78;;;18.92;49.30
73692;BME280;61996;49.910;35.562;2023-11-18T03:38:20;99498.78;;;19.02;49.18
73692;BME280;61996;49.910;35.562;2023-11-18T03:41:23;99496.22;;;19.10;48.90
73692;BME280;61996;49.910;35.562;2023-11-18T03:44:28;99502.66;;;19.17;48.89
73692;BME280;61996;49.910;35.562;2023-11-18T03:47:31;99509.25;;;19.23;48.93
73692;BME280;61996;49.910;35.562;2023-11-18T03:50:35;99512.50;;;19.27;48.96
73692;BME280;61996;49.910;35.562;2023-11-18T03:53:38;99516.69;;;19.29;48.90
73692;BME280;61996;49.910;35.562;2023-11-18T03:56:42;99524.25;;;19.34;48.78
73692;BME280;61996;49.910;35.562;2023-11-18T03:59:46;99526.19;;;19.41;48.50
73692;BME280;61996;49.910;35.562;2023-11-18T04:02:49;99526.88;;;19.43;48.65
73692;BME280;61996;49.910;35.562;2023-11-18T04:05:52;99531.78;;;19.48;48.58
73692;BME280;61996;49.910;35.562;2023-11-18T04:08:55;99527.16;;;19.50;48.72
73692;BME280;61996;49.910;35.562;2023-11-18T04:11:57;99521.38;;;19.55;48.11
73692;BME280;61996;49.910;35.562;2023-11-18T04:15:03;99519.13;;;19.60;48.20
73692;BME280;61996;49.910;35.562;2023-11-18T04:18:06;99527.00;;;19.61;48.42
73692;BME280;61996;49.910;35.562;2023-11-18T04:21:09;99522.22;;;19.65;48.53
73692;BME280;61996;49.910;35.562;2023-11-18T04:24:12;99519.84;;;19.62;48.56
73692;BME280;61996;49.910;35.562;2023-11-18T04:27:16;99520.69;;;19.62;48.48
73692;BME280;61996;49.910;35.562;2023-11-18T04:30:20;99519.97;;;19.60;48.54
73692;BME280;61996;49.910;35.562;2023-11-18T04:33:23;99522.94;;;19.57;48.56
73692;BME280;61996;49.910;35.562;2023-11-18T04:36:27;99509.16;;;19.52;48.68
73692;BME280;61996;49.910;35.562;2023-11-18T04:39:31;99506.81;;;19.49;48.71
73692;BME280;61996;49.910;35.562;2023-11-18T04:42:34;99503.72;;;19.44;48.63
73692;BME280;61996;49.910;35.562;2023-11-18T04:45:40;99521.97;;;19.39;48.80
73692;BME280;61996;49.910;35.562;2023-11-18T04:48:43;99518.94;;;19.34;48.80
73692;BME280;61996;49.910;35.562;2023-11-18T04:51:46;99523.16;;;19.27;49.17
73692;BME280;61996;49.910;35.562;2023-11-18T04:54:49;99533.09;;;19.25;49.11
73692;BME280;61996;49.910;35.562;2023-11-18T04:57:52;99531.84;;;19.19;49.13
73692;BME280;61996;49.910;35.562;2023-11-18T05:00:57;99539.72;;;19.21;49.03
73692;BME280;61996;49.910;35.562;2023-11-18T05:04:00;99548.28;;;19.14;49.12
73692;BME280;61996;49.910;35.562;2023-11-18T05:07:03;99548.72;;;19.10;49.22
73692;BME280;61996;49.910;35.562;2023-11-18T05:10:08;99547.88;;;19.09;49.23
73692;BME280;61996;49.910;35.562;2023-11-18T05:13:11;99554.75;;;19.02;49.40
73692;BME280;61996;49.910;35.562;2023-11-18T05:16:18;99559.38;;;19.00;49.46
73692;BME280;61996;49.910;35.562;2023-11-18T05:19:21;99554.22;;;18.99;49.44
73692;BME280;61996;49.910;35.562;2023-11-18T05:22:24;99552.22;;;18.91;49.47
73692;BME280;61996;49.910;35.562;2023-11-18T05:25:27;99557.44;;;18.93;49.45
73692;BME280;61996;49.910;35.562;2023-11-18T05:28:29;99559.66;;;18.87;49.48
73692;BME280;61996;49.910;35.562;2023-11-18T05:31:34;99562.59;;;18.84;49.74
73692;BME280;61996;49.910;35.562;2023-11-18T05:34:38;99561.06;;;18.82;49.81
73692;BME280;61996;49.910;35.562;2023-11-18T05:37:41;99566.41;;;18.82;49.69
73692;BME280;61996;49.910;35.562;2023-11-18T05:40:45;99577.34;;;18.79;49.83
73692;BME280;61996;49.910;35.562;2023-11-18T05:43:57;99581.13;;;18.76;49.84
73692;BME280;61996;49.910;35.562;2023-11-18T05:47:01;99583.91;;;18.75;49.75
73692;BME280;61996;49.910;35.562;2023-11-18T05:50:05;99593.75;;;18.74;49.89
73692;BME280;61996;49.910;35.562;2023-11-18T05:53:08;99587.72;;;18.72;49.80
73692;BME280;61996;49.910;35.562;2023-11-18T05:56:11;99597.38;;;18.73;49.84
73692;BME280;61996;49.910;35.562;2023-11-18T05:59:14;99594.16;;;18.70;49.83
73692;BME280;61996;49.910;35.562;2023-11-18T06:02:18;99600.88;;;18.74;49.79
73692;BME280;61996;49.910;35.562;2023-11-18T06:05:21;99609.28;;;18.69;49.81
73692;BME280;61996;49.910;35.562;2023-11-18T06:08:28;99607.97;;;18.63;49.97
73692;BME280;61996;49.910;35.562;2023-11-18T06:11:31;99605.31;;;18.63;49.93
73692;BME280;61996;49.910;35.562;2023-11-18T06:14:34;99607.28;;;18.61;49.90
73692;BME280;61996;49.910;35.562;2023-11-18T06:17:38;99610.50;;;18.55;50.13
73692;BME280;61996;49.910;35.562;2023-11-18T06:20:41;99608.66;;;18.56;50.04
73692;BME280;61996;49.910;35.562;2023-11-18T06:23:45;99613.88;;;18.57;50.01
73692;BME280;61996;49.910;35.562;2023-11-18T06:26:50;99604.19;;;18.56;49.98
73692;BME280;61996;49.910;35.562;2023-11-18T06:29:53;99611.47;;;18.54;50.03
73692;BME280;61996;49.910;35.562;2023-11-18T06:32:58;99617.34;;;18.48;50.08
73692;BME280;61996;49.910;35.562;2023-11-18T06:36:01;99624.09;;;18.52;50.02
73692;BME280;61996;49.910;35.562;2023-11-18T06:39:04;99622.69;;;18.48;50.05
73692;BME280;61996;49.910;35.562;2023-11-18T06:42:09;99619.03;;;18.49;50.20
73692;BME280;61996;49.910;35.562;2023-11-18T06:45:13;99624.34;;;18.49;49.98
73692;BME280;61996;49.910;35.562;2023-11-18T06:48:17;99613.69;;;18.49;50.03
73692;BME280;61996;49.910;35.562;2023-11-18T06:51:21;99622.38;;;18.42;50.09
73692;BME280;61996;49.910;35.562;2023-11-18T06:54:25;99619.72;;;18.42;50.25
73692;BME280;61996;49.910;35.562;2023-11-18T06:57:29;99625.03;;;18.42;50.16
73692;BME280;61996;49.910;35.562;2023-11-18T07:00:32;99617.47;;;18.37;50.14
73692;BME280;61996;49.910;35.562;2023-11-18T07:03:36;99621.81;;;18.38;50.23
73692;BME280;61996;49.910;35.562;2023-11-18T07:06:39;99634.44;;;18.36;50.17
73692;BME280;61996;49.910;35.562;2023-11-18T07:09:42;99631.03;;;18.34;50.30
73692;BME280;61996;49.910;35.562;2023-11-18T07:12:46;99629.38;;;18.33;50.28
73692;BME280;61996;49.910;35.562;2023-11-18T07:15:49;99630.78;;;18.37;50.17
73692;BME280;61996;49.910;35.562;2023-11-18T07:18:53;99626.31;;;18.38;50.17
73692;BME280;61996;49.910;35.562;2023-11-18T07:21:56;99630.34;;;18.32;50.20
73692;BME280;61996;49.910;35.562;2023-11-18T07:24:59;99629.38;;;18.33;50.14
73692;BME280;61996;49.910;35.562;2023-11-18T07:28:03;99636.66;;;18.31;50.11
73692;BME280;61996;49.910;35.562;2023-11-18T07:31:07;99633.00;;;18.32;50.22
73692;BME280;61996;49.910;35.562;2023-11-18T07:34:12;99636.66;;;18.31;50.14
73692;BME280;61996;49.910;35.562;2023-11-18T07:37:15;99636.81;;;18.29;50.26
73692;BME280;61996;49.910;35.562;2023-11-18T07:40:19;99647.44;;;18.29;50.20
73692;BME280;61996;49.910;35.562;2023-11-18T07:43:29;99634.25;;;18.28;50.20
73692;BME280;61996;49.910;35.562;2023-11-18T07:46:32;99637.19;;;18.25;50.11
73692;BME280;61996;49.910;35.562;2023-11-18T07:49:36;99646.16;;;18.24;50.25
73692;BME280;61996;49.910;35.562;2023-11-18T07:52:39;99652.47;;;18.23;50.34
73692;BME280;61996;49.910;35.562;2023-11-18T07:55:42;99662.38;;;18.21;50.25
73692;BME280;61996;49.910;35.562;2023-11-18T07:58:46;99661.28;;;18.23;50.33
73692;BME280;61996;49.910;35.562;2023-11-18T08:01:49;99662.28;;;18.22;50.25
73692;BME280;61996;49.910;35.562;2023-11-18T08:04:56;99658.88;;;18.20;50.25
73692;BME280;61996;49.910;35.562;2023-11-18T08:07:59;99659.03;;;18.19;50.24
73692;BME280;61996;49.910;35.562;2023-11-18T08:11:02;99659.03;;;18.19;50.23
73692;BME280;61996;49.910;35.562;2023-11-18T08:14:06;99658.47;;;18.15;50.21
73692;BME280;61996;49.910;35.562;2023-11-18T08:17:09;99669.81;;;18.17;50.27
73692;BME280;61996;49.910;35.562;2023-11-18T08:20:15;99676.22;;;18.15;50.15
73692;BME280;61996;49.910;35.562;2023-11-18T08:23:18;99680.69;;;18.14;50.30
73692;BME280;61996;49.910;35.562;2023-11-18T08:26:21;99684.09;;;18.16;50.13
73692;BME280;61996;49.910;35.562;2023-11-18T08:29:24;99677.19;;;18.14;50.23
73692;BME280;61996;49.910;35.562;2023-11-18T08:32:32;99681.81;;;18.12;50.41
73692;BME280;61996;49.910;35.562;2023-11-18T08:35:36;99685.47;;;18.11;50.25
73692;BME280;61996;49.910;35.562;2023-11-18T08:38:39;99684.34;;;18.13;50.35
73692;BME280;61996;49.910;35.562;2023-11-18T08:41:46;99668.91;;;18.07;50.35
73692;BME280;61996;49.910;35.562;2023-11-18T08:44:52;99671.47;;;18.08;50.18
73692;BME280;61996;49.910;35.562;2023-11-18T08:47:56;99666.00;;;18.10;50.32
73692;BME280;61996;49.910;35.562;2023-11-18T08:51:01;99670.47;;;18.10;50.26
73692;BME280;61996;49.910;35.562;2023-11-18T08:54:04;99671.72;;;18.05;50.19
73692;BME280;61996;49.910;35.562;2023-11-18T08:57:23;99670.47;;;18.10;50.12
73692;BME280;61996;49.910;35.562;2023-11-18T09:00:26;99677.03;;;18.05;50.21
73692;BME280;61996;49.910;35.562;2023-11-18T09:03:47;99669.03;;;18.05;50.31
73692;BME280;61996;49.910;35.562;2023-11-18T09:06:56;99664.00;;;18.02;50.22
73692;BME280;61996;49.910;35.562;2023-11-18T09:10:01;99666.66;;;18.02;50.38
73692;BME280;61996;49.910;35.562;2023-11-18T09:13:04;99666.53;;;18.04;50.23
73692;BME280;61996;49.910;35.562;2023-11-18T09:16:08;99662.19;;;18.03;50.26
73692;BME280;61996;49.910;35.562;2023-11-18T09:19:11;99654.44;;;18.00;50.36
73692;BME280;61996;49.910;35.562;2023-11-18T09:22:15;99649.84;;;18.02;50.31
73692;BME280;61996;49.910;35.562;2023-11-18T09:25:21;99658.41;;;18.05;50.13
73692;BME280;61996;49.910;35.562;2023-11-18T09:28:25;99658.78;;;18.01;50.24
73692;BME280;61996;49.910;35.562;2023-11-18T09:31:30;99656.41;;;17.98;50.33
73692;BME280;61996;49.910;35.562;2023-11-18T09:34:35;99666.91;;;17.99;50.19
73692;BME280;61996;49.910;35.562;2023-11-18T09:37:42;99672.22;;;17.99;50.17
73692;BME280;61996;49.910;35.562;2023-11-18T09:40:45;99657.84;;;18.02;50.20
73692;BME280;61996;49.910;35.562;2023-11-18T09:43:50;99660.03;;;17.97;50.30
73692;BME280;61996;49.910;35.562;2023-11-18T09:46:56;99652.91;;;17.97;50.25
73692;BME280;61996;49.910;35.562;2023-11-18T09:50:06;99643.50;;;17.93;50.40
73692;BME280;61996;49.910;35.562;2023-11-18T09:53:13;99639.97;;;17.93;50.26
73692;BME280;61996;49.910;35.562;2023-11-18T09:56:17;99640.72;;;17.95;50.20
73692;BME280;61996;49.910;35.562;2023-11-18T09:59:31;99633.69;;;17.94;50.28
73692;BME280;61996;49.910;35.562;2023-11-18T10:02:36;99632.84;;;17.93;50.19
73692;BME280;61996;49.910;35.562;2023-11-18T10:05:41;99631.03;;;17.94;50.44
73692;BME280;61996;49.910;35.562;2023-11-18T10:08:46;99624.88;;;17.93;50.27
73692;BME280;61996;49.910;35.562;2023-11-18T10:11:50;99622.19;;;17.93;50.13
73692;BME280;61996;49.910;35.562;2023-11-18T10:14:56;99621.94;;;17.96;50.05
73692;BME280;61996;49.910;35.562;2023-11-18T10:18:00;99630.19;;;17.93;49.98
73692;BME280;61996;49.910;35.562;2023-11-18T10:21:09;99629.47;;;17.91;50.13
73692;BME280;61996;49.910;35.562;2023-11-18T10:24:14;99633.81;;;17.92;50.12
73692;BME280;61996;49.910;35.562;2023-11-18T10:27:23;99639.88;;;17.94;50.00
73692;BME280;61996;49.910;35.562;2023-11-18T10:30:26;99631.44;;;17.89;50.14
73692;BME280;61996;49.910;35.562;2023-11-18T10:33:36;99633.97;;;17.91;50.09
73692;BME280;61996;49.910;35.562;2023-11-18T10:36:39;99634.50;;;17.85;50.08
73692;BME280;61996;49.910;35.562;2023-11-18T10:39:44;99637.47;;;17.91;50.14
73692;BME280;61996;49.910;35.562;2023-11-18T10:42:50;99639.56;;;17.88;50.17
73692;BME280;61996;49.910;35.562;2023-11-18T10:46:03;99631.81;;;17.85;50.21
73692;BME280;61996;49.910;35.562;2023-11-18T10:49:06;99629.88;;;17.87;50.09
73692;BME280;61996;49.910;35.562;2023-11-18T10:52:11;99642.59;;;17.83;50.12
73692;BME280;61996;49.910;35.562;2023-11-18T10:55:16;99646.81;;;17.86;50.25
73692;BME280;61996;49.910;35.562;2023-11-18T10:58:20;99642.59;;;17.83;50.21
73692;BME280;61996;49.910;35.562;2023-11-18T11:01:28;99637.00;;;17.86;50.09
73692;BME280;61996;49.910;35.562;2023-11-18T11:04:31;99648.63;;;17.85;49.97
73692;BME280;61996;49.910;35.562;2023-11-18T11:07:45;99645.13;;;17.85;50.07
73692;BME280;61996;49.910;35.562;2023-11-18T11:10:51;99656.75;;;17.84;50.04
73692;BME280;61996;49.910;35.562;2023-11-18T11:14:00;99649.75;;;17.83;50.27
73692;BME280;61996;49.910;35.562;2023-11-18T11:17:05;99659.09;;;17.77;50.26
73692;BME280;61996;49.910;35.562;2023-11-18T11:20:13;99662.59;;;17.77;50.19
73692;BME280;61996;49.910;35.562;2023-11-18T11:23:27;99655.31;;;17.79;50.20
73692;BME280;61996;49.910;35.562;2023-11-18T11:26:38;99640.19;;;17.80;50.24
73692;BME280;61996;49.910;35.562;2023-11-18T11:29:45;99642.44;;;17.75;50.24
73692;BME280;61996;49.910;35.562;2023-11-18T11:32:53;99634.44;;;17.75;50.25
73692;BME280;61996;49.910;35.562;2023-11-18T11:36:01;99630.13;;;17.74;50.20
73692;BME280;61996;49.910;35.562;2023-11-18T11:39:05;99639.78;;;17.75;50.20
73692;BME280;61996;49.910;35.562;2023-11-18T11:42:13;99627.16;;;17.77;50.06
73692;BME280;61996;49.910;35.562;2023-11-18T11:45:19;99621.16;;;17.75;50.18
73692;BME280;61996;49.910;35.562;2023-11-18T11:48:24;99617.31;;;17.68;50.40
73692;BME280;61996;49.910;35.562;2023-11-18T11:51:30;99609.91;;;17.71;50.10
73692;BME280;61996;49.910;35.562;2023-11-18T11:54:40;99608.94;;;17.72;50.15
73692;BME280;61996;49.910;35.562;2023-11-18T11:57:51;99618.75;;;17.72;50.09
73692;BME280;61996;49.910;35.562;2023-11-18T12:00:55;99625.13;;;17.69;50.26
73692;BME280;61996;49.910;35.562;2023-11-18T12:03:58;99623.47;;;17.68;50.25
73692;BME280;61996;49.910;35.562;2023-11-18T12:07:08;99611.50;;;17.74;50.02
73692;BME280;61996;49.910;35.562;2023-11-18T12:10:21;99608.34;;;17.69;50.32
73692;BME280;61996;49.910;35.562;2023-11-18T12:13:25;99602.88;;;17.70;50.24
73692;BME280;61996;49.910;35.562;2023-11-18T12:19:46;99602.88;;;17.70;50.04
73692;BME280;61996;49.910;35.562;2023-11-18T12:23:03;99604.00;;;17.68;50.10
73692;BME280;61996;49.910;35.562;2023-11-18T12:26:37;99604.84;;;17.68;50.15
73692;BME280;61996;49.910;35.562;2023-11-18T12:29:42;99597.72;;;17.69;50.05
73692;BME280;61996;49.910;35.562;2023-11-18T12:32:58;99600.63;;;17.66;50.26
73692;BME280;61996;49.910;35.562;2023-11-18T12:36:18;99602.88;;;17.70;50.30
73692;BME280;61996;49.910;35.562;2023-11-18T12:42:59;99596.94;;;17.78;50.00
73692;BME280;61996;49.910;35.562;2023-11-18T12:46:12;99600.63;;;17.66;50.33
73692;BME280;61996;49.910;35.562;2023-11-18T12:49:24;99606.72;;;17.77;50.26
73692;BME280;61996;49.910;35.562;2023-11-18T12:52:27;99605.69;;;17.69;50.49
73692;BME280;61996;49.910;35.562;2023-11-18T12:55:30;99603.69;;;17.82;50.78
73692;BME280;61996;49.910;35.562;2023-11-18T12:58:33;99608.16;;;17.82;51.09
73692;BME280;61996;49.910;35.562;2023-11-18T13:01:40;99606.22;;;17.84;50.61
73692;BME280;61996;49.910;35.562;2023-11-18T13:04:44;99609.16;;;17.80;50.85
73692;BME280;61996;49.910;35.562;2023-11-18T13:07:49;99624.97;;;17.82;50.71
73692;BME280;61996;49.910;35.562;2023-11-18T13:10:52;99631.94;;;17.73;51.07
73692;BME280;61996;49.910;35.562;2023-11-18T13:13:55;99642.22;;;17.67;51.43
73692;BME280;61996;49.910;35.562;2023-11-18T13:16:59;99635.28;;;17.75;51.17
73692;BME280;61996;49.910;35.562;2023-11-18T13:20:10;99649.91;;;17.70;51.22
73692;BME280;61996;49.910;35.562;2023-11-18T13:23:16;99666.16;;;17.67;51.22
73692;BME280;61996;49.910;35.562;2023-11-18T13:26:20;99667.09;;;17.66;51.22
73692;BME280;61996;49.910;35.562;2023-11-18T13:29:24;99655.06;;;17.62;51.35
73692;BME280;61996;49.910;35.562;2023-11-18T13:32:28;99652.25;;;17.63;51.13
73692;BME280;61996;49.910;35.562;2023-11-18T13:35:31;99662.59;;;17.77;50.90
73692;BME280;61996;49.910;35.562;2023-11-18T13:38:35;99659.25;;;17.64;51.07
73692;BME280;61996;49.910;35.562;2023-11-18T13:41:38;99666.25;;;17.65;50.99
73692;BME280;61996;49.910;35.562;2023-11-18T13:44:42;99673.63;;;17.73;50.93
73692;BME280;61996;49.910;35.562;2023-11-18T13:47:51;99674.91;;;17.78;50.50
73692;BME280;61996;49.910;35.562;2023-11-18T13:50:54;99690.44;;;17.94;49.93
73692;BME280;61996;49.910;35.562;2023-11-18T13:53:58;99699.03;;;18.07;49.71
73692;BME280;61996;49.910;35.562;2023-11-18T13:57:01;99691.25;;;18.16;49.62
73692;BME280;61996;49.910;35.562;2023-11-18T14:00:05;99695.47;;;18.28;49.63
73692;BME280;61996;49.910;35.562;2023-11-18T14:03:18;99696.38;;;18.38;49.51
73692;BME280;61996;49.910;35.562;2023-11-18T14:06:22;99709.00;;;18.46;49.55
73692;BME280;61996;49.910;35.562;2023-11-18T14:09:25;99719.97;;;18.52;49.34
73692;BME280;61996;49.910;35.562;2023-11-18T14:12:31;99728.13;;;18.60;49.04
73692;BME280;61996;49.910;35.562;2023-11-18T14:15:35;99723.38;;;18.64;49.23
73692;BME280;61996;49.910;35.562;2023-11-18T14:18:39;99714.31;;;18.67;49.11
73692;BME280;61996;49.910;35.562;2023-11-18T14:21:43;99721.75;;;18.73;48.97
73692;BME280;61996;49.910;35.562;2023-11-18T14:24:46;99723.44;;;18.74;49.05
73692;BME280;61996;49.910;35.562;2023-11-18T14:27:49;99714.06;;;18.79;48.75
73692;BME280;61996;49.910;35.562;2023-11-18T14:30:53;99726.84;;;18.85;48.61
73692;BME280;61996;49.910;35.562;2023-11-18T14:33:58;99729.22;;;18.88;48.82
73692;BME280;61996;49.910;35.562;2023-11-18T14:37:01;99712.84;;;19.03;48.46
73692;BME280;61996;49.910;35.562;2023-11-18T14:40:05;99720.41;;;18.98;49.09
73692;BME280;61996;49.910;35.562;2023-11-18T14:43:10;99724.78;;;18.99;48.69
73692;BME280;61996;49.910;35.562;2023-11-18T14:46:13;99715.38;;;19.14;48.69
73692;BME280;61996;49.910;35.562;2023-11-18T14:49:18;99702.06;;;19.24;48.44
73692;BME280;61996;49.910;35.562;2023-11-18T14:52:21;99705.81;;;19.11;48.93
73692;BME280;61996;49.910;35.562;2023-11-18T14:55:24;99711.44;;;19.08;48.58
73692;BME280;61996;49.910;35.562;2023-11-18T14:58:27;99704.69;;;19.04;48.70
73692;BME280;61996;49.910;35.562;2023-11-18T15:01:30;99707.38;;;19.04;48.82
73692;BME280;61996;49.910;35.562;2023-11-18T15:04:34;99703.16;;;19.02;48.49
73692;BME280;61996;49.910;35.562;2023-11-18T15:07:37;99699.50;;;18.93;48.42
73692;BME280;61996;49.910;35.562;2023-11-18T15:10:41;99704.69;;;18.95;48.62
73692;BME280;61996;49.910;35.562;2023-11-18T15:13:45;99711.16;;;18.92;48.45
73692;BME280;61996;49.910;35.562;2023-11-18T15:16:48;99707.75;;;18.80;48.84
73692;BME280;61996;49.910;35.562;2023-11-18T15:19:53;99712.09;;;18.81;48.76
73692;BME280;61996;49.910;35.562;2023-11-18T15:22:57;99706.63;;;18.73;49.02
73692;BME280;61996;49.910;35.562;2023-11-18T15:26:00;99719.09;;;18.73;49.03
73692;BME280;61996;49.910;35.562;2023-11-18T15:29:03;99713.19;;;18.69;49.06
73692;BME280;61996;49.910;35.562;2023-11-18T15:32:16;99716.25;;;18.65;49.08
73692;BME280;61996;49.910;35.562;2023-11-18T15:35:21;99718.31;;;18.61;49.04
73692;BME280;61996;49.910;35.562;2023-11-18T15:38:24;99723.09;;;18.57;49.17
73692;BME280;61996;49.910;35.562;2023-11-18T15:41:27;99739.06;;;18.57;49.52
73692;BME280;61996;49.910;35.562;2023-11-18T15:44:30;99750.31;;;18.40;49.50
73692;BME280;61996;49.910;35.562;2023-11-18T15:47:35;99741.44;;;18.60;48.98
73692;BME280;61996;49.910;35.562;2023-11-18T15:50:40;99743.94;;;18.52;49.27
73692;BME280;61996;49.910;35.562;2023-11-18T15:53:43;99753.84;;;18.41;49.62
73692;BME280;61996;49.910;35.562;2023-11-18T15:56:46;99736.63;;;18.45;49.64
73692;BME280;61996;49.910;35.562;2023-11-18T15:59:49;99740.38;;;18.42;49.54
73692;BME280;61996;49.910;35.562;2023-11-18T16:02:52;99739.16;;;18.46;49.73
73692;BME280;61996;49.910;35.562;2023-11-18T16:06:02;99759.28;;;18.39;49.62
73692;BME280;61996;49.910;35.562;2023-11-18T16:09:05;99767.56;;;18.36;49.65
73692;BME280;61996;49.910;35.562;2023-11-18T16:12:09;99764.31;;;18.32;49.52